ロゾー の空港の天気 - METARとTAF

ケインフィールド空港 ( TDCF / DCF ) - ドミニカ国 ロゾー
飛行場実況気象(Metar)
観測時間09/16 16:00 AST (09/16 20:00 UTC)
風向・風速北西 1m/s
視程10km以上
天気現象
少しの雲 雲底高度 550m
気温33℃
湿度71%
気圧1014hPa
METARTDCF 162000Z 31002KT 9999 FEW018 33/27 Q1014
過去の天気等 Google飛行場航空写真 Wunderground天気予報

過去48時間のMETAR

飛行場予報(TAF)
データがありません